KSLO/SLO METAR and TAF weather

Enter ICAO airport designator
Station Type Date Time Source
KSLO METAR 2020/09/26 11:35 UTC NOAA

KSLO 261135Z AUTO 21011KT 10SM OVC010 18/17 A2997 RMK AO2 T01830170


Station Type Date Time Source
KSLO Decoded METAR 2020/09/26 11:35 UTC NOAA

Salem, Salem-Leckrone Airport, IL, United States (KSLO) 38-38-34N 088-57-51W 174M
Sep 26, 2020 - 07:35 AM EDT / 2020.09.26 1135 UTC
Wind: from the SSW (210 degrees) at 13 MPH (11 KT):0
Visibility: 10 mile(s):0
Sky conditions: overcast
Temperature: 64.9 F (18.3 C)
Dew Point: 62.6 F (17.0 C)
Relative Humidity: 92%
Pressure (altimeter): 29.97 in. Hg (1014 hPa)
ob: KSLO 261135Z AUTO 21011KT 10SM OVC010 18/17 A2997 RMK AO2 T01830170
cycle: 11

Station Type Date Time Source
KSLO TAF UTC NOAA

Error!

Example: see airport list